Pagrindinis puslapis
METAR-TAF:

METAR-TAF

Oro uostai :

Muş, Turkija

platuma: 38-45N, ilguma: 041-40E, Aukštis: 1266 m

Dabartinis oras

Ataskaita buvo paskelbta 10 valandos ir 41 minutes, ne 12:50 UTC
Vėjas 2 kt nuo kintamojo kryptimis
Temperatūra 14°C
Drėgmė 51%
Slėgis 1021 hPa
Matomumas 10 km arba daugiau
Išsisklaidę debesys ne aukštis 6000 ft
Su prošvaistėmis ne aukštis 10000 ft

METAR: LTCK 051250Z VRB02KT 9999 SCT060 BKN100 14/04 Q1021

Laikas: 02:31 (23:31 UTC)

Prognozė

Ataskaita buvo paskelbta 9 valandos ir 51 minutes, ne 13:40 UTC
Prognozė galioja nuo 05 metu 15 UTC su 05 metu 24 UTC
Vėjas 2 kt nuo kintamojo kryptimis
Matomumas 10 km arba daugiau
Išsisklaidę debesys ne aukštis 3500 ft
Su prošvaistėmis ne aukštis 7000 ft

TAF: LTCK 051340Z 0515/0524 VRB02KT 9999 SCT035 BKN070

Orai ataskaitas ir orų prognozės (METAR, TAF).

turimą stotys yra geltonos ir raudonos taškus žemėlapyje.

Perkelti pele per norėdami pamatyti stoties vardą.

Tada spustelėkite, norėdami matyti oro stebėjimo ir prognozės.

Norėdami pakeisti žemėlapį: spustelėkite ant žalios mygtukų su juodo kryžiaus žemyn,; žalią mygtuką su brūkšneliu, jei norite nutolinti; arba žalių rodyklių gretimoms žemėlapius.


METAR-TAF: